St. Day, United Kingdom
Current Conditions -  °F | °C
As of 9:50 AM on Wednesday 26 Nov 2014 (Local Time) from EGDR Reporting Station
Haze Haze  
Wind Chill: 44°   Ceiling: 900
Heat Index: 46°   Visibility: 4mi
Dew Point: 45°   Wind: 5mph
Humidity: 93%   Direction: 360°N
Pressure: 29.91"   Gusts: NA
Location:  50.24°N, 5.19°W
Report Text: EGDR 260950Z 36004KT 6000 HZ FEW007 BKN009 08/07 Q1013 GRN NOSIG
Loading
Personal Weather Stations






























Interactive Weather Map New forecast layout! Learn more

10-Day Weather Forecast

Advertisements
Track Severe Weather on mobile